sensor_id;sensor_type;location;lat;lon;timestamp;P1;durP1;ratioP1;P2;durP2;ratioP2
18046;SDS011;9148;51.454;13.862;2022-10-18T00:01:53;9.97;;;7.17;;
18046;SDS011;9148;51.454;13.862;2022-10-18T00:04:19;8.90;;;6.73;;
18046;SDS011;9148;51.454;13.862;2022-10-18T00:06:45;13.33;;;6.50;;
18046;SDS011;9148;51.454;13.862;2022-10-18T00:09:10;8.73;;;6.97;;
18046;SDS011;9148;51.454;13.862;2022-10-18T00:11:36;9.73;;;6.77;;
18046;SDS011;9148;51.454;13.862;2022-10-18T00:14:02;12.53;;;5.90;;
18046;SDS011;9148;51.454;13.862;2022-10-18T00:16:28;8.50;;;6.80;;
18046;SDS011;9148;51.454;13.862;2022-10-18T00:18:54;12.47;;;6.63;;
18046;SDS011;9148;51.454;13.862;2022-10-18T00:21:20;7.17;;;6.07;;
18046;SDS011;9148;51.454;13.862;2022-10-18T00:23:49;12.63;;;5.90;;
18046;SDS011;9148;51.454;13.862;2022-10-18T00:26:17;9.33;;;6.57;;
18046;SDS011;9148;51.454;13.862;2022-10-18T00:28:48;9.13;;;6.60;;
18046;SDS011;9148;51.454;13.862;2022-10-18T00:31:21;9.50;;;5.87;;
18046;SDS011;9148;51.454;13.862;2022-10-18T00:33:52;9.23;;;5.37;;
18046;SDS011;9148;51.454;13.862;2022-10-18T00:36:26;8.23;;;6.40;;
18046;SDS011;9148;51.454;13.862;2022-10-18T00:38:54;7.27;;;5.60;;
18046;SDS011;9148;51.454;13.862;2022-10-18T00:41:21;6.47;;;5.70;;
18046;SDS011;9148;51.454;13.862;2022-10-18T00:46:50;11.03;;;7.37;;
18046;SDS011;9148;51.454;13.862;2022-10-18T00:49:22;7.57;;;5.83;;
18046;SDS011;9148;51.454;13.862;2022-10-18T00:51:58;6.90;;;6.00;;
18046;SDS011;9148;51.454;13.862;2022-10-18T00:54:30;6.97;;;6.37;;
18046;SDS011;9148;51.454;13.862;2022-10-18T00:56:59;9.90;;;6.27;;
18046;SDS011;9148;51.454;13.862;2022-10-18T00:59:26;8.77;;;6.43;;
18046;SDS011;9148;51.454;13.862;2022-10-18T01:01:52;8.37;;;6.20;;
18046;SDS011;9148;51.454;13.862;2022-10-18T01:04:18;8.03;;;5.97;;
18046;SDS011;9148;51.454;13.862;2022-10-18T01:06:53;9.87;;;6.53;;
18046;SDS011;9148;51.454;13.862;2022-10-18T01:32:25;5.33;;;4.70;;
18046;SDS011;9148;51.454;13.862;2022-10-18T01:34:58;8.33;;;6.30;;
18046;SDS011;9148;51.454;13.862;2022-10-18T01:37:28;6.87;;;5.60;;
18046;SDS011;9148;51.454;13.862;2022-10-18T01:39:56;9.13;;;6.40;;
18046;SDS011;9148;51.454;13.862;2022-10-18T01:42:23;5.80;;;4.73;;
18046;SDS011;9148;51.454;13.862;2022-10-18T01:44:51;6.50;;;4.77;;
18046;SDS011;9148;51.454;13.862;2022-10-18T01:47:17;11.07;;;5.67;;
18046;SDS011;9148;51.454;13.862;2022-10-18T01:49:44;9.17;;;5.53;;
18046;SDS011;9148;51.454;13.862;2022-10-18T01:52:14;5.30;;;4.70;;
18046;SDS011;9148;51.454;13.862;2022-10-18T01:54:42;6.33;;;4.83;;
18046;SDS011;9148;51.454;13.862;2022-10-18T02:00:41;7.43;;;6.03;;
18046;SDS011;9148;51.454;13.862;2022-10-18T02:03:12;7.73;;;5.17;;
18046;SDS011;9148;51.454;13.862;2022-10-18T02:09:08;10.43;;;5.43;;
18046;SDS011;9148;51.454;13.862;2022-10-18T02:11:41;8.37;;;5.27;;
18046;SDS011;9148;51.454;13.862;2022-10-18T02:14:10;6.70;;;5.37;;
18046;SDS011;9148;51.454;13.862;2022-10-18T02:16:45;6.83;;;5.87;;
18046;SDS011;9148;51.454;13.862;2022-10-18T02:21:55;6.20;;;5.23;;
18046;SDS011;9148;51.454;13.862;2022-10-18T02:24:24;5.27;;;4.73;;
18046;SDS011;9148;51.454;13.862;2022-10-18T02:26:57;7.27;;;5.00;;
18046;SDS011;9148;51.454;13.862;2022-10-18T02:29:23;9.43;;;5.03;;
18046;SDS011;9148;51.454;13.862;2022-10-18T02:31:49;6.47;;;5.03;;
18046;SDS011;9148;51.454;13.862;2022-10-18T02:34:40;6.97;;;4.97;;
18046;SDS011;9148;51.454;13.862;2022-10-18T02:37:11;10.43;;;5.97;;
18046;SDS011;9148;51.454;13.862;2022-10-18T02:39:41;8.33;;;5.70;;
18046;SDS011;9148;51.454;13.862;2022-10-18T02:42:11;5.70;;;5.03;;
18046;SDS011;9148;51.454;13.862;2022-10-18T02:44:38;7.13;;;6.13;;
18046;SDS011;9148;51.454;13.862;2022-10-18T02:47:04;6.90;;;5.70;;
18046;SDS011;9148;51.454;13.862;2022-10-18T02:49:32;6.63;;;5.43;;
18046;SDS011;9148;51.454;13.862;2022-10-18T02:51:57;6.43;;;5.00;;
18046;SDS011;9148;51.454;13.862;2022-10-18T02:54:23;10.97;;;5.90;;
18046;SDS011;9148;51.454;13.862;2022-10-18T02:56:49;8.33;;;5.00;;
18046;SDS011;9148;51.454;13.862;2022-10-18T02:59:15;8.67;;;5.63;;
18046;SDS011;9148;51.454;13.862;2022-10-18T03:01:41;7.13;;;5.23;;
18046;SDS011;9148;51.454;13.862;2022-10-18T03:04:06;5.37;;;4.57;;
18046;SDS011;9148;51.454;13.862;2022-10-18T03:06:32;9.53;;;5.13;;
18046;SDS011;9148;51.454;13.862;2022-10-18T03:09:00;6.90;;;5.87;;
18046;SDS011;9148;51.454;13.862;2022-10-18T03:11:27;6.37;;;5.00;;
18046;SDS011;9148;51.454;13.862;2022-10-18T03:13:53;8.23;;;4.83;;
18046;SDS011;9148;51.454;13.862;2022-10-18T03:16:18;9.57;;;5.57;;
18046;SDS011;9148;51.454;13.862;2022-10-18T03:18:44;9.70;;;5.73;;
18046;SDS011;9148;51.454;13.862;2022-10-18T03:21:10;8.57;;;5.40;;
18046;SDS011;9148;51.454;13.862;2022-10-18T03:23:36;8.93;;;5.67;;
18046;SDS011;9148;51.454;13.862;2022-10-18T03:26:01;5.87;;;5.13;;
18046;SDS011;9148;51.454;13.862;2022-10-18T03:28:27;6.27;;;5.00;;
18046;SDS011;9148;51.454;13.862;2022-10-18T03:30:58;7.70;;;6.20;;
18046;SDS011;9148;51.454;13.862;2022-10-18T03:33:25;6.17;;;5.23;;
18046;SDS011;9148;51.454;13.862;2022-10-18T03:35:51;8.40;;;4.90;;
18046;SDS011;9148;51.454;13.862;2022-10-18T03:38:17;5.80;;;5.10;;
18046;SDS011;9148;51.454;13.862;2022-10-18T03:40:43;9.50;;;4.90;;
18046;SDS011;9148;51.454;13.862;2022-10-18T03:43:08;7.23;;;5.47;;
18046;SDS011;9148;51.454;13.862;2022-10-18T03:45:34;7.70;;;5.17;;
18046;SDS011;9148;51.454;13.862;2022-10-18T03:48:00;6.57;;;4.53;;
18046;SDS011;9148;51.454;13.862;2022-10-18T03:50:25;8.10;;;4.30;;
18046;SDS011;9148;51.454;13.862;2022-10-18T03:52:51;6.37;;;4.50;;
18046;SDS011;9148;51.454;13.862;2022-10-18T03:55:18;6.40;;;3.93;;
18046;SDS011;9148;51.454;13.862;2022-10-18T03:57:44;8.40;;;4.50;;
18046;SDS011;9148;51.454;13.862;2022-10-18T04:00:09;5.20;;;4.57;;
18046;SDS011;9148;51.454;13.862;2022-10-18T04:02:36;4.90;;;4.43;;
18046;SDS011;9148;51.454;13.862;2022-10-18T04:05:02;4.17;;;3.67;;
18046;SDS011;9148;51.454;13.862;2022-10-18T04:07:28;5.23;;;4.57;;
18046;SDS011;9148;51.454;13.862;2022-10-18T04:09:54;5.40;;;4.33;;
18046;SDS011;9148;51.454;13.862;2022-10-18T04:12:19;4.93;;;4.43;;
18046;SDS011;9148;51.454;13.862;2022-10-18T04:14:45;6.33;;;4.97;;
18046;SDS011;9148;51.454;13.862;2022-10-18T04:17:11;6.57;;;4.63;;
18046;SDS011;9148;51.454;13.862;2022-10-18T04:19:36;5.87;;;4.60;;
18046;SDS011;9148;51.454;13.862;2022-10-18T04:22:02;8.17;;;6.07;;
18046;SDS011;9148;51.454;13.862;2022-10-18T04:24:28;8.87;;;5.40;;
18046;SDS011;9148;51.454;13.862;2022-10-18T04:26:53;6.97;;;5.37;;
18046;SDS011;9148;51.454;13.862;2022-10-18T04:29:19;7.53;;;5.37;;
18046;SDS011;9148;51.454;13.862;2022-10-18T04:31:48;7.70;;;6.03;;
18046;SDS011;9148;51.454;13.862;2022-10-18T04:34:20;7.40;;;5.10;;
18046;SDS011;9148;51.454;13.862;2022-10-18T04:36:46;5.80;;;4.63;;
18046;SDS011;9148;51.454;13.862;2022-10-18T04:39:11;8.70;;;5.33;;
18046;SDS011;9148;51.454;13.862;2022-10-18T04:41:37;6.77;;;5.27;;
18046;SDS011;9148;51.454;13.862;2022-10-18T04:44:03;11.23;;;4.97;;
18046;SDS011;9148;51.454;13.862;2022-10-18T04:46:29;5.87;;;5.17;;
18046;SDS011;9148;51.454;13.862;2022-10-18T04:48:54;6.23;;;5.37;;
18046;SDS011;9148;51.454;13.862;2022-10-18T04:51:20;6.20;;;4.50;;
18046;SDS011;9148;51.454;13.862;2022-10-18T04:53:46;7.17;;;5.43;;
18046;SDS011;9148;51.454;13.862;2022-10-18T04:56:12;9.43;;;7.03;;
18046;SDS011;9148;51.454;13.862;2022-10-18T04:58:37;6.00;;;5.03;;
18046;SDS011;9148;51.454;13.862;2022-10-18T05:01:04;5.87;;;4.73;;
18046;SDS011;9148;51.454;13.862;2022-10-18T05:03:31;8.27;;;5.77;;
18046;SDS011;9148;51.454;13.862;2022-10-18T05:05:57;4.67;;;3.97;;
18046;SDS011;9148;51.454;13.862;2022-10-18T05:08:22;5.50;;;4.63;;
18046;SDS011;9148;51.454;13.862;2022-10-18T05:10:48;6.20;;;5.23;;
18046;SDS011;9148;51.454;13.862;2022-10-18T05:13:14;18.77;;;6.33;;
18046;SDS011;9148;51.454;13.862;2022-10-18T05:15:40;9.23;;;4.90;;
18046;SDS011;9148;51.454;13.862;2022-10-18T05:18:05;7.23;;;5.10;;
18046;SDS011;9148;51.454;13.862;2022-10-18T05:20:31;5.80;;;5.00;;
18046;SDS011;9148;51.454;13.862;2022-10-18T05:22:57;6.37;;;4.43;;
18046;SDS011;9148;51.454;13.862;2022-10-18T05:25:23;6.87;;;5.13;;
18046;SDS011;9148;51.454;13.862;2022-10-18T05:27:49;6.07;;;4.80;;
18046;SDS011;9148;51.454;13.862;2022-10-18T05:30:14;12.23;;;5.43;;
18046;SDS011;9148;51.454;13.862;2022-10-18T05:32:40;7.65;;;5.43;;
18046;SDS011;9148;51.454;13.862;2022-10-18T05:35:06;6.30;;;5.40;;
18046;SDS011;9148;51.454;13.862;2022-10-18T05:37:32;8.18;;;5.82;;
18046;SDS011;9148;51.454;13.862;2022-10-18T05:39:57;6.95;;;5.85;;
18046;SDS011;9148;51.454;13.862;2022-10-18T05:42:23;6.28;;;4.30;;
18046;SDS011;9148;51.454;13.862;2022-10-18T05:44:49;7.40;;;5.30;;
18046;SDS011;9148;51.454;13.862;2022-10-18T05:47:14;5.93;;;4.97;;
18046;SDS011;9148;51.454;13.862;2022-10-18T05:49:40;6.22;;;4.63;;
18046;SDS011;9148;51.454;13.862;2022-10-18T05:52:06;8.32;;;5.90;;
18046;SDS011;9148;51.454;13.862;2022-10-18T05:54:31;6.73;;;5.43;;
18046;SDS011;9148;51.454;13.862;2022-10-18T05:56:57;6.90;;;5.38;;
18046;SDS011;9148;51.454;13.862;2022-10-18T05:59:23;11.43;;;6.00;;
18046;SDS011;9148;51.454;13.862;2022-10-18T06:01:49;9.57;;;5.88;;
18046;SDS011;9148;51.454;13.862;2022-10-18T06:04:15;6.70;;;5.40;;
18046;SDS011;9148;51.454;13.862;2022-10-18T06:06:41;8.07;;;5.85;;
18046;SDS011;9148;51.454;13.862;2022-10-18T06:09:07;7.45;;;5.32;;
18046;SDS011;9148;51.454;13.862;2022-10-18T06:11:34;13.57;;;5.78;;
18046;SDS011;9148;51.454;13.862;2022-10-18T06:14:00;10.82;;;5.90;;
18046;SDS011;9148;51.454;13.862;2022-10-18T06:16:26;8.75;;;5.68;;
18046;SDS011;9148;51.454;13.862;2022-10-18T06:18:53;7.35;;;5.18;;
18046;SDS011;9148;51.454;13.862;2022-10-18T06:21:21;7.70;;;5.33;;
18046;SDS011;9148;51.454;13.862;2022-10-18T06:23:53;6.95;;;5.95;;
18046;SDS011;9148;51.454;13.862;2022-10-18T06:26:22;9.45;;;6.60;;
18046;SDS011;9148;51.454;13.862;2022-10-18T06:28:48;8.43;;;5.72;;
18046;SDS011;9148;51.454;13.862;2022-10-18T06:31:14;9.18;;;6.03;;
18046;SDS011;9148;51.454;13.862;2022-10-18T06:33:41;8.93;;;5.90;;
18046;SDS011;9148;51.454;13.862;2022-10-18T06:36:09;6.20;;;5.60;;
18046;SDS011;9148;51.454;13.862;2022-10-18T06:38:38;8.63;;;6.57;;
18046;SDS011;9148;51.454;13.862;2022-10-18T06:41:04;10.07;;;7.10;;
18046;SDS011;9148;51.454;13.862;2022-10-18T06:43:31;9.07;;;6.63;;
18046;SDS011;9148;51.454;13.862;2022-10-18T06:45:57;7.35;;;6.55;;
18046;SDS011;9148;51.454;13.862;2022-10-18T06:48:29;8.60;;;6.37;;
18046;SDS011;9148;51.454;13.862;2022-10-18T06:50:56;11.63;;;7.22;;
18046;SDS011;9148;51.454;13.862;2022-10-18T06:53:24;9.27;;;6.83;;
18046;SDS011;9148;51.454;13.862;2022-10-18T06:55:57;10.48;;;6.75;;
18046;SDS011;9148;51.454;13.862;2022-10-18T06:58:24;10.73;;;6.40;;
18046;SDS011;9148;51.454;13.862;2022-10-18T07:00:50;12.52;;;8.05;;
18046;SDS011;9148;51.454;13.862;2022-10-18T07:03:16;9.15;;;7.07;;
18046;SDS011;9148;51.454;13.862;2022-10-18T07:05:41;10.10;;;6.68;;
18046;SDS011;9148;51.454;13.862;2022-10-18T07:08:07;9.18;;;6.10;;
18046;SDS011;9148;51.454;13.862;2022-10-18T07:10:33;8.93;;;7.78;;
18046;SDS011;9148;51.454;13.862;2022-10-18T07:12:58;6.95;;;6.22;;
18046;SDS011;9148;51.454;13.862;2022-10-18T07:15:24;9.05;;;6.32;;
18046;SDS011;9148;51.454;13.862;2022-10-18T07:17:50;10.13;;;7.72;;
18046;SDS011;9148;51.454;13.862;2022-10-18T07:20:15;7.88;;;6.68;;
18046;SDS011;9148;51.454;13.862;2022-10-18T07:22:41;9.20;;;5.90;;
18046;SDS011;9148;51.454;13.862;2022-10-18T07:25:07;10.27;;;6.95;;
18046;SDS011;9148;51.454;13.862;2022-10-18T07:27:36;13.68;;;7.00;;
18046;SDS011;9148;51.454;13.862;2022-10-18T07:30:04;12.00;;;6.53;;
18046;SDS011;9148;51.454;13.862;2022-10-18T07:32:32;9.00;;;7.15;;
18046;SDS011;9148;51.454;13.862;2022-10-18T07:34:57;9.00;;;7.03;;
18046;SDS011;9148;51.454;13.862;2022-10-18T07:37:23;9.05;;;7.25;;
18046;SDS011;9148;51.454;13.862;2022-10-18T07:39:49;11.73;;;7.28;;
18046;SDS011;9148;51.454;13.862;2022-10-18T07:42:14;12.55;;;7.47;;
18046;SDS011;9148;51.454;13.862;2022-10-18T07:44:40;18.58;;;5.75;;
18046;SDS011;9148;51.454;13.862;2022-10-18T07:47:06;8.75;;;6.85;;
18046;SDS011;9148;51.454;13.862;2022-10-18T07:49:31;8.82;;;6.03;;
18046;SDS011;9148;51.454;13.862;2022-10-18T07:51:57;19.80;;;14.65;;
18046;SDS011;9148;51.454;13.862;2022-10-18T07:54:23;26.08;;;21.98;;
18046;SDS011;9148;51.454;13.862;2022-10-18T07:56:48;15.98;;;10.57;;
18046;SDS011;9148;51.454;13.862;2022-10-18T07:59:14;10.55;;;6.97;;
18046;SDS011;9148;51.454;13.862;2022-10-18T08:01:39;9.95;;;6.25;;
18046;SDS011;9148;51.454;13.862;2022-10-18T08:04:05;9.63;;;7.38;;
18046;SDS011;9148;51.454;13.862;2022-10-18T08:06:31;10.15;;;6.28;;
18046;SDS011;9148;51.454;13.862;2022-10-18T08:08:56;10.70;;;6.97;;
18046;SDS011;9148;51.454;13.862;2022-10-18T08:11:23;9.90;;;8.35;;
18046;SDS011;9148;51.454;13.862;2022-10-18T08:13:50;7.05;;;6.22;;
18046;SDS011;9148;51.454;13.862;2022-10-18T08:16:18;8.88;;;7.40;;
18046;SDS011;9148;51.454;13.862;2022-10-18T08:18:52;13.75;;;6.78;;
18046;SDS011;9148;51.454;13.862;2022-10-18T08:21:18;11.90;;;7.68;;
18046;SDS011;9148;51.454;13.862;2022-10-18T08:23:45;9.27;;;6.97;;
18046;SDS011;9148;51.454;13.862;2022-10-18T08:26:13;10.98;;;6.90;;
18046;SDS011;9148;51.454;13.862;2022-10-18T08:28:41;12.43;;;8.07;;
18046;SDS011;9148;51.454;13.862;2022-10-18T08:31:12;13.13;;;7.07;;
18046;SDS011;9148;51.454;13.862;2022-10-18T08:33:42;9.68;;;6.82;;
18046;SDS011;9148;51.454;13.862;2022-10-18T08:36:10;11.98;;;7.57;;
18046;SDS011;9148;51.454;13.862;2022-10-18T08:38:39;12.85;;;8.07;;
18046;SDS011;9148;51.454;13.862;2022-10-18T08:41:18;9.65;;;7.13;;
18046;SDS011;9148;51.454;13.862;2022-10-18T08:46:40;7.20;;;6.28;;
18046;SDS011;9148;51.454;13.862;2022-10-18T08:49:16;10.35;;;6.70;;
18046;SDS011;9148;51.454;13.862;2022-10-18T08:51:54;10.98;;;7.65;;
18046;SDS011;9148;51.454;13.862;2022-10-18T08:54:32;11.07;;;6.05;;
18046;SDS011;9148;51.454;13.862;2022-10-18T08:57:03;15.35;;;8.43;;
18046;SDS011;9148;51.454;13.862;2022-10-18T08:59:38;9.20;;;7.25;;
18046;SDS011;9148;51.454;13.862;2022-10-18T09:08:17;12.52;;;8.93;;
18046;SDS011;9148;51.454;13.862;2022-10-18T09:11:07;13.25;;;8.25;;
18046;SDS011;9148;51.454;13.862;2022-10-18T09:16:39;10.25;;;8.32;;
18046;SDS011;9148;51.454;13.862;2022-10-18T09:19:25;11.98;;;7.75;;
18046;SDS011;9148;51.454;13.862;2022-10-18T09:22:30;11.63;;;6.45;;
18046;SDS011;9148;51.454;13.862;2022-10-18T09:31:41;13.57;;;8.88;;
18046;SDS011;9148;51.454;13.862;2022-10-18T09:37:23;17.40;;;9.48;;
18046;SDS011;9148;51.454;13.862;2022-10-18T09:39:53;12.77;;;8.13;;
18046;SDS011;9148;51.454;13.862;2022-10-18T09:42:30;10.85;;;8.57;;
18046;SDS011;9148;51.454;13.862;2022-10-18T09:45:03;12.88;;;9.32;;
18046;SDS011;9148;51.454;13.862;2022-10-18T09:47:44;12.80;;;8.27;;
18046;SDS011;9148;51.454;13.862;2022-10-18T09:55:52;11.38;;;8.63;;
18046;SDS011;9148;51.454;13.862;2022-10-18T09:58:22;11.38;;;8.48;;
18046;SDS011;9148;51.454;13.862;2022-10-18T10:00:50;10.02;;;7.28;;
18046;SDS011;9148;51.454;13.862;2022-10-18T10:03:17;13.05;;;8.05;;
18046;SDS011;9148;51.454;13.862;2022-10-18T10:05:43;12.48;;;6.93;;
18046;SDS011;9148;51.454;13.862;2022-10-18T10:08:09;8.95;;;6.53;;
18046;SDS011;9148;51.454;13.862;2022-10-18T10:10:37;9.57;;;5.75;;
18046;SDS011;9148;51.454;13.862;2022-10-18T10:13:14;7.13;;;6.07;;
18046;SDS011;9148;51.454;13.862;2022-10-18T10:15:57;9.45;;;7.22;;
18046;SDS011;9148;51.454;13.862;2022-10-18T10:18:27;7.25;;;5.35;;
18046;SDS011;9148;51.454;13.862;2022-10-18T10:20:59;6.85;;;4.95;;
18046;SDS011;9148;51.454;13.862;2022-10-18T10:23:31;2.78;;;2.55;;
18046;SDS011;9148;51.454;13.862;2022-10-18T10:26:04;3.75;;;2.03;;
18046;SDS011;9148;51.454;13.862;2022-10-18T10:28:46;2.47;;;1.63;;
18046;SDS011;9148;51.454;13.862;2022-10-18T10:31:17;4.03;;;2.95;;
18046;SDS011;9148;51.454;13.862;2022-10-18T10:33:59;4.30;;;2.15;;
18046;SDS011;9148;51.454;13.862;2022-10-18T10:36:47;2.67;;;2.00;;
18046;SDS011;9148;51.454;13.862;2022-10-18T10:39:19;1.95;;;1.70;;
18046;SDS011;9148;51.454;13.862;2022-10-18T10:41:47;2.67;;;1.35;;
18046;SDS011;9148;51.454;13.862;2022-10-18T10:44:18;1.83;;;1.25;;
18046;SDS011;9148;51.454;13.862;2022-10-18T10:46:47;1.98;;;1.75;;
18046;SDS011;9148;51.454;13.862;2022-10-18T10:49:21;1.65;;;1.52;;
18046;SDS011;9148;51.454;13.862;2022-10-18T10:52:08;2.75;;;1.67;;
18046;SDS011;9148;51.454;13.862;2022-10-18T10:54:43;3.05;;;1.63;;
18046;SDS011;9148;51.454;13.862;2022-10-18T11:04:39;0.80;;;0.80;;
18046;SDS011;9148;51.454;13.862;2022-10-18T11:10:05;2.28;;;1.30;;
18046;SDS011;9148;51.454;13.862;2022-10-18T11:12:56;1.45;;;0.85;;
18046;SDS011;9148;51.454;13.862;2022-10-18T11:15:46;2.05;;;1.38;;
18046;SDS011;9148;51.454;13.862;2022-10-18T11:18:22;1.58;;;1.33;;
18046;SDS011;9148;51.454;13.862;2022-10-18T11:21:07;1.52;;;0.80;;
18046;SDS011;9148;51.454;13.862;2022-10-18T11:23:41;1.35;;;1.17;;
18046;SDS011;9148;51.454;13.862;2022-10-18T11:28:51;1.25;;;1.15;;
18046;SDS011;9148;51.454;13.862;2022-10-18T11:31:38;0.93;;;0.60;;
18046;SDS011;9148;51.454;13.862;2022-10-18T11:37:12;0.55;;;0.55;;
18046;SDS011;9148;51.454;13.862;2022-10-18T11:51:54;0.57;;;0.57;;
18046;SDS011;9148;51.454;13.862;2022-10-18T11:54:59;0.43;;;0.43;;
18046;SDS011;9148;51.454;13.862;2022-10-18T11:57:42;0.82;;;0.70;;
18046;SDS011;9148;51.454;13.862;2022-10-18T12:00:33;0.98;;;0.95;;
18046;SDS011;9148;51.454;13.862;2022-10-18T12:06:32;1.60;;;0.85;;
18046;SDS011;9148;51.454;13.862;2022-10-18T12:09:06;0.43;;;0.43;;
18046;SDS011;9148;51.454;13.862;2022-10-18T12:11:57;0.65;;;0.55;;
18046;SDS011;9148;51.454;13.862;2022-10-18T12:14:37;0.47;;;0.47;;
18046;SDS011;9148;51.454;13.862;2022-10-18T12:17:21;0.47;;;0.40;;
18046;SDS011;9148;51.454;13.862;2022-10-18T12:20:03;1.98;;;0.45;;
18046;SDS011;9148;51.454;13.862;2022-10-18T12:22:41;1.08;;;0.80;;
18046;SDS011;9148;51.454;13.862;2022-10-18T12:25:22;0.65;;;0.65;;
18046;SDS011;9148;51.454;13.862;2022-10-18T12:27:57;0.80;;;0.57;;
18046;SDS011;9148;51.454;13.862;2022-10-18T12:30:53;0.60;;;0.43;;
18046;SDS011;9148;51.454;13.862;2022-10-18T12:33:43;0.55;;;0.55;;
18046;SDS011;9148;51.454;13.862;2022-10-18T12:38:49;0.52;;;0.50;;
18046;SDS011;9148;51.454;13.862;2022-10-18T12:41:28;0.65;;;0.52;;
18046;SDS011;9148;51.454;13.862;2022-10-18T12:44:02;0.70;;;0.70;;
18046;SDS011;9148;51.454;13.862;2022-10-18T12:49:31;0.80;;;0.77;;
18046;SDS011;9148;51.454;13.862;2022-10-18T12:52:04;0.82;;;0.80;;
18046;SDS011;9148;51.454;13.862;2022-10-18T12:54:33;0.77;;;0.68;;
18046;SDS011;9148;51.454;13.862;2022-10-18T12:57:03;0.80;;;0.57;;
18046;SDS011;9148;51.454;13.862;2022-10-18T12:59:42;1.45;;;0.98;;
18046;SDS011;9148;51.454;13.862;2022-10-18T13:02:17;1.02;;;0.80;;
18046;SDS011;9148;51.454;13.862;2022-10-18T13:04:47;1.15;;;1.05;;
18046;SDS011;9148;51.454;13.862;2022-10-18T13:12:49;0.50;;;0.50;;
18046;SDS011;9148;51.454;13.862;2022-10-18T13:15:40;2.40;;;1.50;;
18046;SDS011;9148;51.454;13.862;2022-10-18T13:18:17;0.50;;;0.50;;
18046;SDS011;9148;51.454;13.862;2022-10-18T13:21:19;1.25;;;0.82;;
18046;SDS011;9148;51.454;13.862;2022-10-18T13:24:22;2.40;;;2.20;;
18046;SDS011;9148;51.454;13.862;2022-10-18T13:27:16;5.13;;;2.47;;
18046;SDS011;9148;51.454;13.862;2022-10-18T13:32:47;2.03;;;1.90;;
18046;SDS011;9148;51.454;13.862;2022-10-18T13:38:39;3.63;;;1.73;;
18046;SDS011;9148;51.454;13.862;2022-10-18T13:41:16;2.47;;;1.88;;
18046;SDS011;9148;51.454;13.862;2022-10-18T14:01:22;2.05;;;1.23;;
18046;SDS011;9148;51.454;13.862;2022-10-18T14:07:29;3.60;;;1.45;;
18046;SDS011;9148;51.454;13.862;2022-10-18T14:09:56;1.55;;;1.40;;
18046;SDS011;9148;51.454;13.862;2022-10-18T14:12:34;1.75;;;1.30;;
18046;SDS011;9148;51.454;13.862;2022-10-18T14:15:24;1.60;;;1.10;;
18046;SDS011;9148;51.454;13.862;2022-10-18T14:17:57;1.80;;;1.20;;
18046;SDS011;9148;51.454;13.862;2022-10-18T14:20:27;1.80;;;1.23;;
18046;SDS011;9148;51.454;13.862;2022-10-18T14:25:48;2.30;;;1.30;;
18046;SDS011;9148;51.454;13.862;2022-10-18T14:28:17;1.23;;;0.77;;
18046;SDS011;9148;51.454;13.862;2022-10-18T14:30:57;2.35;;;1.42;;
18046;SDS011;9148;51.454;13.862;2022-10-18T14:33:40;1.85;;;1.23;;
18046;SDS011;9148;51.454;13.862;2022-10-18T14:43:50;1.92;;;1.45;;
18046;SDS011;9148;51.454;13.862;2022-10-18T14:46:20;2.15;;;1.25;;
18046;SDS011;9148;51.454;13.862;2022-10-18T14:48:53;1.65;;;1.35;;
18046;SDS011;9148;51.454;13.862;2022-10-18T14:51:29;0.80;;;0.80;;
18046;SDS011;9148;51.454;13.862;2022-10-18T14:53:59;0.88;;;0.68;;
18046;SDS011;9148;51.454;13.862;2022-10-18T14:56:28;1.60;;;1.27;;
18046;SDS011;9148;51.454;13.862;2022-10-18T14:58:56;2.38;;;1.23;;
18046;SDS011;9148;51.454;13.862;2022-10-18T15:01:30;1.35;;;1.15;;
18046;SDS011;9148;51.454;13.862;2022-10-18T15:03:57;2.22;;;1.70;;
18046;SDS011;9148;51.454;13.862;2022-10-18T15:06:27;4.43;;;1.48;;
18046;SDS011;9148;51.454;13.862;2022-10-18T15:08:55;3.00;;;1.85;;
18046;SDS011;9148;51.454;13.862;2022-10-18T15:11:22;2.30;;;1.67;;
18046;SDS011;9148;51.454;13.862;2022-10-18T15:13:54;2.20;;;1.67;;
18046;SDS011;9148;51.454;13.862;2022-10-18T15:16:26;1.80;;;1.50;;
18046;SDS011;9148;51.454;13.862;2022-10-18T15:21:37;3.13;;;1.92;;
18046;SDS011;9148;51.454;13.862;2022-10-18T15:24:19;3.17;;;1.73;;
18046;SDS011;9148;51.454;13.862;2022-10-18T15:26:55;1.65;;;1.17;;
18046;SDS011;9148;51.454;13.862;2022-10-18T15:29:29;2.03;;;1.83;;
18046;SDS011;9148;51.454;13.862;2022-10-18T15:32:01;1.98;;;1.30;;
18046;SDS011;9148;51.454;13.862;2022-10-18T15:34:39;1.65;;;1.05;;
18046;SDS011;9148;51.454;13.862;2022-10-18T15:40:18;1.20;;;1.08;;
18046;SDS011;9148;51.454;13.862;2022-10-18T15:42:51;1.20;;;0.77;;
18046;SDS011;9148;51.454;13.862;2022-10-18T15:45:28;1.05;;;0.60;;
18046;SDS011;9148;51.454;13.862;2022-10-18T15:50:49;1.27;;;0.68;;
18046;SDS011;9148;51.454;13.862;2022-10-18T15:55:50;1.50;;;1.20;;
18046;SDS011;9148;51.454;13.862;2022-10-18T16:00:56;0.80;;;0.73;;
18046;SDS011;9148;51.454;13.862;2022-10-18T16:03:25;1.70;;;1.35;;
18046;SDS011;9148;51.454;13.862;2022-10-18T16:05:52;1.50;;;1.30;;
18046;SDS011;9148;51.454;13.862;2022-10-18T16:08:25;1.42;;;1.15;;
18046;SDS011;9148;51.454;13.862;2022-10-18T16:10:54;2.03;;;1.38;;
18046;SDS011;9148;51.454;13.862;2022-10-18T16:13:22;1.75;;;1.52;;
18046;SDS011;9148;51.454;13.862;2022-10-18T16:15:49;1.25;;;1.15;;
18046;SDS011;9148;51.454;13.862;2022-10-18T16:18:16;2.20;;;1.27;;
18046;SDS011;9148;51.454;13.862;2022-10-18T16:20:44;1.05;;;0.98;;
18046;SDS011;9148;51.454;13.862;2022-10-18T16:23:15;1.27;;;1.13;;
18046;SDS011;9148;51.454;13.862;2022-10-18T16:25:50;1.95;;;1.65;;
18046;SDS011;9148;51.454;13.862;2022-10-18T16:28:17;1.40;;;1.20;;
18046;SDS011;9148;51.454;13.862;2022-10-18T16:30:51;3.35;;;1.40;;
18046;SDS011;9148;51.454;13.862;2022-10-18T16:33:22;1.35;;;1.25;;
18046;SDS011;9148;51.454;13.862;2022-10-18T16:35:49;1.38;;;1.27;;
18046;SDS011;9148;51.454;13.862;2022-10-18T16:38:29;1.75;;;1.30;;
18046;SDS011;9148;51.454;13.862;2022-10-18T16:41:03;1.75;;;1.65;;
18046;SDS011;9148;51.454;13.862;2022-10-18T16:43:31;2.58;;;2.17;;
18046;SDS011;9148;51.454;13.862;2022-10-18T16:45:59;2.95;;;2.10;;
18046;SDS011;9148;51.454;13.862;2022-10-18T16:48:26;3.88;;;2.17;;
18046;SDS011;9148;51.454;13.862;2022-10-18T16:50:52;2.28;;;1.77;;
18046;SDS011;9148;51.454;13.862;2022-10-18T16:53:20;2.70;;;1.98;;
18046;SDS011;9148;51.454;13.862;2022-10-18T16:55:50;2.17;;;1.63;;
18046;SDS011;9148;51.454;13.862;2022-10-18T16:58:19;2.67;;;1.52;;
18046;SDS011;9148;51.454;13.862;2022-10-18T17:00:46;3.78;;;2.13;;
18046;SDS011;9148;51.454;13.862;2022-10-18T17:03:13;3.08;;;2.03;;
18046;SDS011;9148;51.454;13.862;2022-10-18T17:05:39;3.42;;;2.60;;
18046;SDS011;9148;51.454;13.862;2022-10-18T17:08:06;4.90;;;2.80;;
18046;SDS011;9148;51.454;13.862;2022-10-18T17:10:33;2.20;;;2.00;;
18046;SDS011;9148;51.454;13.862;2022-10-18T17:12:58;8.90;;;3.17;;
18046;SDS011;9148;51.454;13.862;2022-10-18T17:15:24;3.92;;;2.53;;
18046;SDS011;9148;51.454;13.862;2022-10-18T17:17:50;3.78;;;3.10;;
18046;SDS011;9148;51.454;13.862;2022-10-18T17:20:23;2.78;;;2.45;;
18046;SDS011;9148;51.454;13.862;2022-10-18T17:22:50;2.95;;;2.50;;
18046;SDS011;9148;51.454;13.862;2022-10-18T17:25:17;2.70;;;1.85;;
18046;SDS011;9148;51.454;13.862;2022-10-18T17:27:44;2.05;;;1.88;;
18046;SDS011;9148;51.454;13.862;2022-10-18T17:30:11;2.95;;;2.05;;
18046;SDS011;9148;51.454;13.862;2022-10-18T17:32:38;2.53;;;1.73;;
18046;SDS011;9148;51.454;13.862;2022-10-18T17:35:07;2.65;;;1.77;;
18046;SDS011;9148;51.454;13.862;2022-10-18T17:37:33;2.83;;;2.20;;
18046;SDS011;9148;51.454;13.862;2022-10-18T17:39:59;2.70;;;1.73;;
18046;SDS011;9148;51.454;13.862;2022-10-18T17:42:24;1.98;;;1.80;;